createdAt,value
2019-05-26T00:00:18.135Z,9.80
2019-05-26T00:30:31.057Z,9.85
2019-05-26T00:45:37.876Z,10.35
2019-05-26T01:00:45.733Z,11.60
2019-05-26T01:15:52.631Z,11.35
2019-05-26T01:31:01.314Z,10.90
2019-05-26T01:46:08.797Z,10.53
2019-05-26T02:01:16.359Z,10.18
2019-05-26T02:16:23.957Z,10.28
2019-05-26T02:31:30.863Z,10.30
2019-05-26T02:46:37.814Z,10.25
2019-05-26T03:02:02.373Z,9.70
2019-05-26T03:16:59.875Z,12.00
2019-05-26T03:32:07.588Z,11.10
2019-05-26T03:47:17.833Z,12.07
2019-05-26T04:02:25.704Z,11.48
2019-05-26T04:17:34.293Z,11.60
2019-05-26T04:32:41.344Z,11.40
2019-05-26T05:02:57.677Z,9.15
2019-05-26T05:18:05.352Z,7.53
2019-05-26T05:33:12.370Z,6.55
2019-05-26T05:48:20.549Z,6.72
2019-05-26T06:03:28.224Z,6.87
2019-05-26T06:18:36.948Z,6.28
2019-05-26T06:33:45.079Z,6.00
2019-05-26T06:48:53.676Z,7.40
2019-05-26T07:04:00.808Z,9.00
2019-05-26T07:19:07.651Z,8.70
2019-05-26T07:34:15.485Z,9.10
2019-05-26T07:49:23.469Z,6.90
2019-05-26T08:04:31.834Z,8.38
2019-05-26T08:19:38.697Z,5.28
2019-05-26T08:34:46.385Z,6.15
2019-05-26T08:49:53.924Z,5.58
2019-05-26T09:05:00.836Z,5.33
2019-05-26T09:20:11.780Z,5.17
2019-05-26T09:35:19.760Z,4.90
2019-05-26T09:50:30.097Z,5.22
2019-05-26T10:05:36.923Z,4.60
2019-05-26T10:20:44.510Z,6.85
2019-05-26T10:35:51.186Z,5.60
2019-05-26T10:50:58.914Z,4.45
2019-05-26T11:06:09.065Z,4.90
2019-05-26T11:21:15.961Z,4.17
2019-05-26T11:36:23.139Z,4.05
2019-05-26T11:51:29.813Z,4.62
2019-05-26T12:06:36.579Z,4.28
2019-05-26T12:21:43.815Z,4.78
2019-05-26T12:36:50.579Z,4.00
2019-05-26T12:51:57.672Z,4.95
2019-05-26T13:07:11.692Z,4.72
2019-05-26T13:22:19.628Z,4.05
2019-05-26T13:37:27.499Z,3.22
2019-05-26T13:52:34.215Z,3.15
2019-05-26T14:07:42.867Z,3.52
2019-05-26T14:22:49.852Z,2.98
2019-05-26T14:37:57.853Z,2.60
2019-05-26T14:53:06.583Z,3.20
2019-05-26T15:08:15.230Z,2.80
2019-05-26T15:23:25.261Z,2.90
2019-05-26T15:38:42.470Z,2.75
2019-05-26T15:53:42.514Z,3.12
2019-05-26T16:08:50.046Z,3.95
2019-05-26T16:23:58.518Z,3.22
2019-05-26T16:39:34.352Z,3.30
2019-05-26T17:09:52.977Z,3.80
2019-05-26T17:25:00.118Z,4.37
2019-05-26T17:40:26.871Z,4.65
2019-05-26T17:55:34.400Z,5.12
2019-05-26T18:10:41.806Z,5.53
2019-05-26T18:25:49.155Z,6.42
2019-05-26T18:40:57.877Z,7.37
2019-05-26T18:56:07.010Z,7.47
2019-05-26T19:11:17.726Z,7.62
2019-05-26T19:26:26.685Z,6.97
2019-05-26T19:41:34.217Z,8.60
2019-05-26T19:56:41.980Z,7.65
2019-05-26T20:12:08.372Z,6.95
2019-05-26T20:27:15.575Z,6.33
2019-05-26T20:59:53.701Z,5.65
2019-05-26T21:15:01.273Z,4.92
2019-05-26T21:45:37.074Z,5.40
2019-05-26T22:00:46.281Z,7.45
2019-05-26T22:15:53.408Z,6.40
2019-05-26T22:31:04.630Z,7.40
2019-05-26T22:46:11.906Z,5.83
2019-05-26T23:01:21.387Z,6.17
2019-05-26T23:16:29.419Z,6.30
2019-05-26T23:31:36.569Z,8.28
2019-05-26T23:46:44.097Z,7.33
